Time;durP1;ratioP1;P1;durP2;ratioP2;P2;SDS_P1;SDS_P2;PMS_P1;PMS_P2;Temp;Humidity;BMP_temperature;BMP_pressure;BME280_temperature;BME280_humidity;BME280_pressure;Samples;Min_cycle;Max_cycle;Signal;HPM_P1;HPM_P2
2023/02/08 00:01:44;;;;;;;33.80;18.70;;;;;;;-0.29;78.22;102744.34;102186;1260;1003435;-72
2023/02/08 00:04:11;;;;;;;35.70;20.20;;;;;;;-0.29;78.12;102748.45;102949;1257;107983;-72
2023/02/08 00:06:40;;;;;;;36.10;20.50;;;;;;;-0.30;78.02;102752.70;103010;1263;97864;-72
2023/02/08 00:09:10;;;;;;;37.00;19.70;;;;;;;-0.31;78.17;102758.45;102831;1267;138667;-72
2023/02/08 00:11:37;;;;;;;38.30;19.80;;;;;;;-0.31;78.15;102760.32;102927;1265;107902;-73
2023/02/08 00:14:04;;;;;;;37.80;18.60;;;;;;;-0.32;78.07;102755.00;102924;1264;139073;-73
2023/02/08 00:16:31;;;;;;;32.30;18.20;;;;;;;-0.32;77.97;102759.75;102200;1255;1003496;-72
2023/02/08 00:18:58;;;;;;;36.00;19.40;;;;;;;-0.33;77.95;102756.98;103048;1260;97797;-72
2023/02/08 00:21:46;;;;;;;37.00;19.00;;;;;;;-0.32;77.99;102759.40;103023;1260;111534;-71
2023/02/08 00:24:13;;;;;;;36.30;19.30;;;;;;;-0.33;78.09;102758.17;103064;1258;107937;-72
2023/02/08 00:26:43;;;;;;;33.30;18.20;;;;;;;-0.34;78.10;102762.06;102970;1260;138837;-72
2023/02/08 00:29:13;;;;;;;30.10;18.00;;;;;;;-0.33;78.02;102759.52;102576;1258;1003199;-72
2023/02/08 00:31:42;;;;;;;29.70;18.30;;;;;;;-0.34;78.09;102757.61;102853;1262;139497;-73
2023/02/08 00:34:09;;;;;;;31.20;18.30;;;;;;;-0.33;78.08;102760.71;102297;1260;1003127;-72
2023/02/08 00:36:45;;;;;;;34.30;18.60;;;;;;;-0.34;78.00;102761.35;103081;1260;108678;-73
2023/02/08 00:39:12;;;;;;;35.90;19.70;;;;;;;-0.36;77.99;102759.91;102896;1255;138837;-73
2023/02/08 00:41:50;;;;;;;33.60;19.10;;;;;;;-0.36;78.14;102758.19;103042;1257;106638;-73
2023/02/08 00:44:17;;;;;;;27.70;17.80;;;;;;;-0.36;78.28;102759.71;102935;1260;138701;-73
2023/02/08 00:46:44;;;;;;;36.10;18.70;;;;;;;-0.35;78.29;102764.56;102241;1260;1003228;-72
2023/02/08 00:49:12;;;;;;;33.40;19.50;;;;;;;-0.35;78.02;102762.38;102120;1260;1002641;-72
2023/02/08 00:51:39;;;;;;;32.10;18.20;;;;;;;-0.35;78.28;102763.05;102945;1260;139194;-73
2023/02/08 00:54:06;;;;;;;34.50;18.90;;;;;;;-0.34;78.08;102766.17;102253;1260;1005632;-73
2023/02/08 00:56:36;;;;;;;27.60;17.30;;;;;;;-0.35;78.10;102763.91;102933;1260;139936;-73
2023/02/08 00:59:04;;;;;;;36.60;19.30;;;;;;;-0.32;78.19;102768.64;103025;1255;111865;-73
2023/02/08 01:01:34;;;;;;;35.30;18.50;;;;;;;-0.33;78.24;102765.38;102850;1257;139162;-72
2023/02/08 01:04:09;;;;;;;38.50;19.00;;;;;;;-0.33;78.09;102766.40;102187;1257;1002555;-73
2023/02/08 01:06:36;;;;;;;33.60;19.00;;;;;;;-0.33;78.26;102768.77;102943;1255;107766;-71
2023/02/08 01:09:03;;;;;;;37.10;19.50;;;;;;;-0.32;78.14;102768.13;102844;1260;139238;-72
2023/02/08 01:11:33;;;;;;;35.90;19.40;;;;;;;-0.32;78.15;102770.37;103012;1257;111283;-72
2023/02/08 01:14:00;;;;;;;35.90;18.80;;;;;;;-0.32;77.99;102773.80;102110;1260;1003169;-71
2023/02/08 01:16:30;;;;;;;34.30;19.00;;;;;;;-0.33;78.13;102767.59;103659;1257;1002709;-73
2023/02/08 01:19:02;;;;;;;33.20;19.20;;;;;;;-0.32;78.09;102766.78;103613;1259;106708;-72
2023/02/08 01:21:31;;;;;;;39.30;19.80;;;;;;;-0.31;78.02;102767.98;102044;1256;1003568;-73
2023/02/08 01:24:01;;;;;;;37.20;19.30;;;;;;;-0.32;78.00;102771.23;103107;1258;111344;-72
2023/02/08 01:26:48;;;;;;;37.50;20.30;;;;;;;-0.32;78.01;102769.00;102938;1257;138660;-73
2023/02/08 01:29:16;;;;;;;35.00;19.00;;;;;;;-0.33;78.04;102766.91;103052;1260;97836;-72
2023/02/08 01:31:53;;;;;;;36.80;19.20;;;;;;;-0.33;78.05;102765.90;103632;1257;1002148;-73
2023/02/08 01:34:23;;;;;;;34.20;19.60;;;;;;;-0.34;78.13;102771.65;103575;1257;97823;-72
2023/02/08 01:36:50;;;;;;;32.50;18.50;;;;;;;-0.34;77.98;102770.10;102987;1260;111303;-72
2023/02/08 01:39:20;;;;;;;38.00;19.50;;;;;;;-0.35;77.94;102771.05;102953;1260;138677;-72
2023/02/08 01:41:47;;;;;;;38.70;20.80;;;;;;;-0.37;78.04;102773.34;103035;1259;98287;-72
2023/02/08 01:44:49;;;;;;;34.50;19.20;;;;;;;-0.37;77.85;102773.48;102936;1260;138469;-72
2023/02/08 01:47:17;;;;;;;36.10;19.40;;;;;;;-0.38;78.04;102774.98;102960;1257;98312;-72
2023/02/08 01:49:44;;;;;;;33.10;19.20;;;;;;;-0.39;77.96;102779.89;102959;1257;139003;-73
2023/02/08 01:52:14;;;;;;;33.40;18.20;;;;;;;-0.40;77.97;102779.00;102986;1261;107873;-73
2023/02/08 01:54:46;;;;;;;32.90;18.50;;;;;;;-0.40;77.95;102776.23;103136;1257;97676;-75
2023/02/08 01:57:32;;;;;;;34.80;18.20;;;;;;;-0.40;78.05;102769.56;102947;1258;138456;-73
2023/02/08 02:00:01;;;;;;;33.30;18.00;;;;;;;-0.41;78.06;102769.67;102993;1257;97847;-72
2023/02/08 02:02:40;;;;;;;34.20;18.80;;;;;;;-0.43;77.99;102771.98;103533;1258;138669;-73
2023/02/08 02:05:11;;;;;;;33.00;18.60;;;;;;;-0.46;77.95;102774.71;103014;1255;108702;-72
2023/02/08 02:07:39;;;;;;;39.40;20.20;;;;;;;-0.48;78.01;102779.23;103267;1257;138803;-72
2023/02/08 02:10:11;;;;;;;33.50;20.00;;;;;;;-0.49;78.07;102777.30;102921;1257;108893;-73
2023/02/08 02:12:41;;;;;;;37.80;19.90;;;;;;;-0.52;77.95;102784.01;102840;1260;97885;-72
2023/02/08 02:15:11;;;;;;;35.80;19.40;;;;;;;-0.53;78.18;102781.15;102035;1260;1003647;-73
2023/02/08 02:17:40;;;;;;;39.10;20.10;;;;;;;-0.53;78.14;102783.59;102870;1260;108262;-72
2023/02/08 02:20:14;;;;;;;36.30;19.50;;;;;;;-0.52;78.33;102789.11;102055;1257;1002729;-73
2023/02/08 02:23:19;;;;;;;36.20;19.60;;;;;;;-0.53;78.31;102786.31;103501;1260;108239;-73
2023/02/08 02:26:11;;;;;;;34.30;19.00;;;;;;;-0.52;78.24;102789.30;103076;1260;139103;-73
2023/02/08 02:29:00;;;;;;;36.70;20.60;;;;;;;-0.51;78.40;102789.02;103103;1258;112140;-73
2023/02/08 02:31:59;;;;;;;38.30;20.70;;;;;;;-0.50;78.45;102790.59;102876;1258;138769;-73
2023/02/08 02:34:38;;;;;;;38.40;20.30;;;;;;;-0.50;78.35;102795.38;102867;1255;97870;-74
2023/02/08 02:37:19;;;;;;;37.90;20.30;;;;;;;-0.50;78.42;102799.31;102223;1261;1002802;-74
2023/02/08 02:39:55;;;;;;;37.40;20.20;;;;;;;-0.49;78.46;102803.11;102944;1257;97817;-74
2023/02/08 02:45:26;;;;;;;38.10;20.90;;;;;;;-0.48;78.19;102806.07;102624;1260;315054;-73
2023/02/08 02:48:02;;;;;;;34.90;19.60;;;;;;;-0.49;78.29;102808.23;102370;1257;1003462;-73
2023/02/08 02:50:36;;;;;;;31.50;18.50;;;;;;;-0.50;78.34;102804.95;103282;1257;138816;-73
2023/02/08 02:53:12;;;;;;;37.60;19.40;;;;;;;-0.52;78.28;102804.99;104428;1256;96098;-74
2023/02/08 02:56:04;;;;;;;34.60;19.30;;;;;;;-0.54;78.28;102811.55;104073;1259;139324;-73
2023/02/08 02:58:36;;;;;;;41.70;20.60;;;;;;;-0.55;78.26;102812.33;104054;1255;106508;-73
2023/02/08 03:01:03;;;;;;;35.10;20.40;;;;;;;-0.54;78.47;102812.89;104457;1257;96145;-73
2023/02/08 03:03:34;;;;;;;38.40;18.50;;;;;;;-0.53;78.49;102813.35;102741;1257;1002662;-73
2023/02/08 03:06:07;;;;;;;37.80;20.30;;;;;;;-0.53;78.49;102813.50;103690;1257;97600;-74
2023/02/08 03:09:00;;;;;;;36.20;18.80;;;;;;;-0.53;78.50;102815.86;102997;1257;138523;-73
2023/02/08 03:11:41;;;;;;;33.40;18.60;;;;;;;-0.53;78.44;102815.89;102963;1254;106909;-73
2023/02/08 03:14:28;;;;;;;33.50;18.00;;;;;;;-0.54;78.43;102811.86;104178;1255;139735;-73
2023/02/08 03:17:12;;;;;;;34.00;18.30;;;;;;;-0.54;78.65;102814.30;104406;1256;109369;-74
2023/02/08 03:19:46;;;;;;;35.00;17.70;;;;;;;-0.54;78.51;102816.83;104272;1257;139128;-73
2023/02/08 03:22:20;;;;;;;34.10;18.10;;;;;;;-0.55;78.56;102819.00;104315;1256;111280;-74
2023/02/08 03:24:54;;;;;;;31.40;17.90;;;;;;;-0.55;78.65;102816.95;104373;1260;108167;-73
2023/02/08 03:27:28;;;;;;;35.60;18.90;;;;;;;-0.54;78.64;102819.05;104318;1259;139446;-73
2023/02/08 03:30:01;;;;;;;33.90;18.30;;;;;;;-0.53;78.64;102823.58;104386;1255;107116;-74
2023/02/08 03:32:40;;;;;;;33.20;18.20;;;;;;;-0.52;78.48;102824.66;104330;1257;138682;-74
2023/02/08 03:35:32;;;;;;;29.90;17.80;;;;;;;-0.51;78.68;102825.23;103338;1257;112304;-73
2023/02/08 03:38:04;;;;;;;30.40;16.80;;;;;;;-0.50;78.64;102824.77;102876;1257;138931;-74
2023/02/08 03:40:42;;;;;;;33.60;18.10;;;;;;;-0.51;78.72;102820.96;102964;1257;98644;-73
2023/02/08 03:43:18;;;;;;;34.90;18.70;;;;;;;-0.50;78.58;102824.77;102239;1257;1002519;-74
2023/02/08 03:46:01;;;;;;;34.20;18.80;;;;;;;-0.49;78.75;102828.04;102902;1257;97718;-74
2023/02/08 03:48:54;;;;;;;34.20;18.50;;;;;;;-0.48;78.68;102832.89;103014;1260;110977;-73
2023/02/08 03:51:43;;;;;;;34.80;18.80;;;;;;;-0.51;78.44;102836.16;103261;1256;138668;-74
2023/02/08 03:54:23;;;;;;;32.00;18.50;;;;;;;-0.55;78.40;102834.36;103576;1257;97835;-74
2023/02/08 03:57:10;;;;;;;33.70;18.80;;;;;;;-0.56;78.62;102832.45;102890;1258;138508;-73
2023/02/08 03:59:40;;;;;;;34.40;19.10;;;;;;;-0.55;78.74;102834.21;103013;1260;97855;-73
2023/02/08 04:02:31;;;;;;;34.80;19.10;;;;;;;-0.54;78.65;102835.27;102907;1256;138850;-73
2023/02/08 04:05:19;;;;;;;35.40;19.20;;;;;;;-0.55;78.73;102836.06;102924;1260;109973;-73
2023/02/08 04:07:46;;;;;;;32.80;19.90;;;;;;;-0.57;78.67;102833.92;102894;1255;138867;-73
2023/02/08 04:10:13;;;;;;;38.00;19.50;;;;;;;-0.56;78.77;102836.35;102995;1257;107717;-73
2023/02/08 04:12:52;;;;;;;37.00;19.40;;;;;;;-0.56;78.58;102833.80;102935;1258;97679;-73
2023/02/08 04:15:19;;;;;;;41.00;19.30;;;;;;;-0.56;78.82;102835.34;102937;1260;138545;-73
2023/02/08 04:17:49;;;;;;;37.30;19.40;;;;;;;-0.55;78.77;102837.61;102999;1260;107973;-73
2023/02/08 04:20:19;;;;;;;36.50;18.60;;;;;;;-0.53;79.02;102843.37;102889;1260;138715;-74
2023/02/08 04:22:55;;;;;;;31.40;18.80;;;;;;;-0.52;78.96;102842.79;103063;1254;107781;-73
2023/02/08 04:25:22;;;;;;;34.70;19.90;;;;;;;-0.52;78.83;102836.79;102932;1256;97811;-73
2023/02/08 04:27:50;;;;;;;37.70;21.00;;;;;;;-0.52;78.86;102840.38;102138;1257;1003504;-73
2023/02/08 04:30:17;;;;;;;36.10;20.20;;;;;;;-0.51;79.02;102839.21;102886;1256;107113;-73
2023/02/08 04:32:44;;;;;;;38.10;20.50;;;;;;;-0.51;78.93;102837.38;102243;1257;1003019;-73
2023/02/08 04:35:11;;;;;;;37.30;21.30;;;;;;;-0.51;79.02;102837.55;103080;1256;107793;-74
2023/02/08 04:37:38;;;;;;;35.80;20.90;;;;;;;-0.50;79.02;102843.73;102933;1260;138845;-73
2023/02/08 04:40:12;;;;;;;38.90;21.10;;;;;;;-0.49;78.90;102844.50;102319;1257;1003093;-73
2023/02/08 04:42:42;;;;;;;40.00;21.50;;;;;;;-0.47;79.09;102843.73;103178;1260;105761;-74
2023/02/08 04:45:10;;;;;;;37.80;20.90;;;;;;;-0.45;78.92;102848.11;102972;1258;138671;-74
2023/02/08 04:47:57;;;;;;;36.60;20.60;;;;;;;-0.44;78.88;102850.21;102930;1260;107697;-73
2023/02/08 04:50:45;;;;;;;37.70;21.50;;;;;;;-0.43;79.11;102851.98;103714;1255;139215;-73
2023/02/08 04:53:20;;;;;;;36.70;20.80;;;;;;;-0.42;79.01;102848.59;104060;1255;110688;-74
2023/02/08 04:55:47;;;;;;;37.90;20.20;;;;;;;-0.41;79.02;102847.79;102033;1260;1002998;-74
2023/02/08 04:58:22;;;;;;;35.70;20.00;;;;;;;-0.40;78.95;102845.79;102995;1256;98494;-74
2023/02/08 05:00:51;;;;;;;39.00;20.20;;;;;;;-0.40;78.87;102846.35;103007;1257;106888;-74
2023/02/08 05:03:18;;;;;;;36.60;19.60;;;;;;;-0.40;78.82;102848.54;102811;1261;138795;-73
2023/02/08 05:05:45;;;;;;;36.20;19.90;;;;;;;-0.40;78.94;102853.00;102879;1259;111046;-75
2023/02/08 05:08:12;;;;;;;37.70;20.10;;;;;;;-0.39;78.99;102848.59;102845;1259;138664;-74
2023/02/08 05:10:45;;;;;;;31.40;19.80;;;;;;;-0.38;78.89;102851.38;102931;1260;97696;-73
2023/02/08 05:13:15;;;;;;;36.60;19.50;;;;;;;-0.37;78.97;102857.74;102176;1256;1004294;-73
2023/02/08 05:15:42;;;;;;;35.10;20.20;;;;;;;-0.38;79.01;102859.61;104277;1255;139538;-73
2023/02/08 05:18:09;;;;;;;33.00;20.40;;;;;;;-0.39;78.82;102863.14;104345;1255;111559;-73
2023/02/08 05:20:39;;;;;;;36.90;20.00;;;;;;;-0.38;78.87;102865.25;103489;1255;1002208;-73
2023/02/08 05:23:07;;;;;;;37.80;20.00;;;;;;;-0.37;78.96;102868.88;103148;1258;1002543;-73
2023/02/08 05:25:39;;;;;;;37.00;21.30;;;;;;;-0.37;79.03;102870.40;102885;1255;139434;-73
2023/02/08 05:28:13;;;;;;;37.20;21.40;;;;;;;-0.36;79.02;102873.77;102163;1260;1003160;-74
2023/02/08 05:30:43;;;;;;;38.10;20.70;;;;;;;-0.33;79.05;102875.29;101473;1255;1003163;-74
2023/02/08 05:33:21;;;;;;;41.40;22.10;;;;;;;-0.30;79.06;102879.88;102800;1257;138947;-74
2023/02/08 05:35:48;;;;;;;42.90;22.50;;;;;;;-0.30;79.10;102878.85;103011;1259;98290;-73
2023/02/08 05:38:15;;;;;;;39.60;22.60;;;;;;;-0.27;79.13;102881.73;102874;1255;138516;-74
2023/02/08 05:40:46;;;;;;;39.00;22.10;;;;;;;-0.25;79.04;102885.44;103067;1260;97710;-72
2023/02/08 05:43:17;;;;;;;39.50;22.50;;;;;;;-0.23;79.07;102891.34;104435;1256;110816;-73
2023/02/08 05:45:44;;;;;;;42.70;24.00;;;;;;;-0.22;78.99;102892.25;103508;1255;1002512;-74
2023/02/08 05:48:11;;;;;;;42.80;23.20;;;;;;;-0.22;78.98;102889.70;104411;1256;97472;-74
2023/02/08 05:50:38;;;;;;;40.20;22.90;;;;;;;-0.22;79.02;102893.79;104286;1255;138407;-73
2023/02/08 05:53:08;;;;;;;42.70;23.00;;;;;;;-0.22;78.98;102899.63;104149;1257;95875;-73
2023/02/08 05:55:35;;;;;;;40.10;22.50;;;;;;;-0.20;78.98;102900.76;102832;1258;138779;-73
2023/02/08 05:58:08;;;;;;;48.00;24.70;;;;;;;-0.17;78.86;102901.94;102087;1258;1002782;-75
2023/02/08 06:00:37;;;;;;;43.70;24.00;;;;;;;-0.17;78.85;102901.61;102910;1260;98307;-72
2023/02/08 06:03:08;;;;;;;46.30;24.20;;;;;;;-0.17;78.90;102906.39;102728;1256;138649;-74
2023/02/08 06:05:39;;;;;;;47.90;24.30;;;;;;;-0.18;78.74;102913.34;102174;1257;1003025;-73
2023/02/08 06:08:06;;;;;;;43.40;24.00;;;;;;;-0.19;78.83;102918.94;102888;1260;139027;-73
2023/02/08 06:10:34;;;;;;;42.10;23.30;;;;;;;-0.20;78.58;102916.83;102848;1257;106954;-76
2023/02/08 06:13:21;;;;;;;42.80;24.10;;;;;;;-0.21;78.79;102921.06;102962;1257;97852;-78
2023/02/08 06:16:09;;;;;;;43.20;24.00;;;;;;;-0.22;78.71;102920.83;102896;1260;108864;-74
2023/02/08 06:18:36;;;;;;;46.30;24.50;;;;;;;-0.23;78.60;102920.79;102843;1260;97904;-80
2023/02/08 06:21:07;;;;;;;43.60;24.00;;;;;;;-0.22;78.76;102921.14;102825;1257;138511;-79
2023/02/08 06:23:34;;;;;;;44.40;25.70;;;;;;;-0.22;78.70;102922.85;102877;1257;107371;-74
2023/02/08 06:26:02;;;;;;;44.00;24.60;;;;;;;-0.22;78.77;102926.61;102046;1257;1002887;-75
2023/02/08 06:28:29;;;;;;;47.90;24.60;;;;;;;-0.22;78.69;102928.83;104365;1256;107697;-75
2023/02/08 06:30:59;;;;;;;44.80;24.70;;;;;;;-0.22;78.77;102931.95;104363;1256;95897;-75
2023/02/08 06:33:26;;;;;;;45.70;25.50;;;;;;;-0.21;78.88;102932.65;104264;1255;138470;-74
2023/02/08 06:35:54;;;;;;;46.20;25.90;;;;;;;-0.19;78.84;102930.86;103629;1257;1002745;-74
2023/02/08 06:38:21;;;;;;;46.70;26.10;;;;;;;-0.18;78.82;102932.00;103552;1256;1002197;-74
2023/02/08 06:40:49;;;;;;;47.40;26.50;;;;;;;-0.18;78.84;102934.71;104165;1257;107199;-74
2023/02/08 06:43:19;;;;;;;48.40;25.80;;;;;;;-0.19;78.63;102937.89;102823;1257;97771;-76
2023/02/08 06:45:47;;;;;;;54.80;27.90;;;;;;;-0.21;78.68;102941.21;102830;1260;138764;-75
2023/02/08 06:48:15;;;;;;;50.90;26.00;;;;;;;-0.21;79.01;102939.66;102859;1257;108632;-77
2023/02/08 06:50:45;;;;;;;53.20;26.80;;;;;;;-0.21;78.90;102944.98;102776;1257;139309;-80
2023/02/08 06:53:12;;;;;;;45.60;26.10;;;;;;;-0.21;78.99;102950.09;102998;1260;105960;-75
2023/02/08 06:55:47;;;;;;;49.10;26.60;;;;;;;-0.22;78.93;102953.47;102245;1256;1014299;-74
2023/02/08 06:58:14;;;;;;;50.20;27.60;;;;;;;-0.23;78.97;102953.77;102197;1258;1003343;-77
2023/02/08 07:00:49;;;;;;;54.20;28.40;;;;;;;-0.25;78.96;102956.40;103631;1258;108321;-80
2023/02/08 07:03:17;;;;;;;52.40;28.10;;;;;;;-0.26;78.97;102963.00;102879;1255;138802;-76
2023/02/08 07:05:44;;;;;;;56.70;29.10;;;;;;;-0.27;79.01;102966.72;102347;1255;1003231;-75
2023/02/08 07:08:33;;;;;;;57.40;28.40;;;;;;;-0.28;79.03;102971.11;102848;1259;139374;-75
2023/02/08 07:11:00;;;;;;;54.50;29.20;;;;;;;-0.28;79.03;102976.40;102904;1255;109929;-75
2023/02/08 07:13:32;;;;;;;55.80;29.50;;;;;;;-0.28;79.34;102979.64;102880;1258;106787;-76
2023/02/08 07:15:59;;;;;;;50.80;28.00;;;;;;;-0.29;79.22;102986.25;101540;1255;1003070;-75
2023/02/08 07:18:26;;;;;;;52.80;28.90;;;;;;;-0.32;79.26;102989.02;102875;1254;109404;-76
2023/02/08 07:20:53;;;;;;;50.50;27.50;;;;;;;-0.35;79.18;102992.11;102858;1259;138699;-77
2023/02/08 07:23:34;;;;;;;49.00;28.80;;;;;;;-0.36;79.34;102995.08;102897;1255;111305;-77
2023/02/08 07:26:04;;;;;;;44.90;25.90;;;;;;;-0.40;79.50;102994.52;102794;1257;139058;-75
2023/02/08 07:28:51;;;;;;;44.60;24.00;;;;;;;-0.45;79.33;102993.88;103016;1255;97691;-77
2023/02/08 07:31:19;;;;;;;46.00;24.60;;;;;;;-0.50;79.33;102996.52;102229;1255;1003621;-78
2023/02/08 07:33:58;;;;;;;39.20;22.40;;;;;;;-0.56;79.30;102996.67;102484;1257;139893;-76
2023/02/08 07:36:25;;;;;;;41.00;22.40;;;;;;;-0.62;79.52;102994.84;102982;1258;109816;-75
2023/02/08 07:38:52;;;;;;;39.10;22.50;;;;;;;-0.65;79.45;102993.46;102979;1255;107651;-76
2023/02/08 07:41:22;;;;;;;44.20;22.20;;;;;;;-0.69;79.69;102993.08;103038;1255;97820;-80
2023/02/08 07:44:08;;;;;;;;;;;;;;;-0.71;79.66;102987.67;102338;1255;1003204;-81
2023/02/08 07:46:35;;;;;;;37.60;20.80;;;;;;;-0.71;80.00;102987.83;103007;1255;124913;-83
2023/02/08 07:49:02;;;;;;;35.20;19.40;;;;;;;-0.70;80.07;102991.63;102992;1258;111288;-81
2023/02/08 07:51:40;;;;;;;33.70;20.20;;;;;;;-0.71;80.22;102988.88;102872;1254;138838;-81
2023/02/08 07:54:07;;;;;;;38.10;21.50;;;;;;;-0.72;80.03;102989.67;103026;1256;97665;-73
2023/02/08 07:56:34;;;;;;;45.90;22.20;;;;;;;-0.72;80.31;102992.55;102998;1255;107677;-83
2023/02/08 07:59:02;;;;;;;41.20;20.40;;;;;;;-0.70;80.27;102989.56;102718;1260;138668;-75
2023/02/08 08:01:29;;;;;;;40.00;20.60;;;;;;;-0.70;80.46;102990.98;102959;1260;111108;-72
2023/02/08 08:03:56;;;;;;;39.40;19.60;;;;;;;-0.69;80.41;102991.35;102890;1257;138613;-74
2023/02/08 08:06:23;;;;;;;37.40;19.40;;;;;;;-0.71;80.49;102990.91;103014;1260;97815;-72
2023/02/08 08:08:54;;;;;;;36.80;20.80;;;;;;;-0.73;80.48;102988.71;103029;1257;107386;-74
2023/02/08 08:11:21;;;;;;;36.60;20.30;;;;;;;-0.71;80.46;102994.64;102908;1257;97698;-74
2023/02/08 08:14:09;;;;;;;40.90;21.20;;;;;;;-0.70;80.64;102997.29;101540;1260;1003214;-73
2023/02/08 08:16:46;;;;;;;39.20;20.30;;;;;;;-0.68;80.68;102998.58;102946;1260;139294;-73
2023/02/08 08:19:16;;;;;;;38.30;20.50;;;;;;;-0.69;80.76;102996.51;103004;1256;97808;-73
2023/02/08 08:21:43;;;;;;;40.10;21.60;;;;;;;-0.66;80.79;102998.85;102925;1255;138904;-76
2023/02/08 08:24:19;;;;;;;41.00;21.40;;;;;;;-0.65;80.83;102999.42;103059;1255;98272;-73
2023/02/08 08:26:49;;;;;;;46.10;23.20;;;;;;;-0.66;80.80;103000.39;102952;1258;113809;-75
2023/02/08 08:29:16;;;;;;;45.40;23.90;;;;;;;-0.67;80.97;103003.95;102811;1257;138817;-75
2023/02/08 08:31:53;;;;;;;43.80;23.20;;;;;;;-0.68;80.90;103002.34;102932;1255;98366;-74
2023/02/08 08:34:23;;;;;;;49.20;24.40;;;;;;;-0.68;80.99;102998.23;102831;1260;138449;-75
2023/02/08 08:36:53;;;;;;;44.90;24.80;;;;;;;-0.67;81.01;103002.56;102933;1260;97831;-75
2023/02/08 08:39:20;;;;;;;44.20;24.70;;;;;;;-0.65;81.15;103006.46;102107;1260;1003093;-76
2023/02/08 08:41:47;;;;;;;46.50;24.80;;;;;;;-0.63;81.19;103004.33;103068;1255;106408;-76
2023/02/08 08:44:15;;;;;;;47.60;26.80;;;;;;;-0.62;81.32;103005.95;103036;1255;97765;-76
2023/02/08 08:46:44;;;;;;;46.80;26.00;;;;;;;-0.62;81.39;103010.91;102897;1255;138548;-72
2023/02/08 08:49:32;;;;;;;49.20;25.70;;;;;;;-0.61;81.30;103009.95;102357;1257;1003468;-74
2023/02/08 08:51:59;;;;;;;51.20;26.20;;;;;;;-0.61;81.35;103014.04;102992;1255;140386;-73
2023/02/08 08:54:26;;;;;;;46.80;27.10;;;;;;;-0.62;81.46;103014.33;102249;1260;1003657;-73
2023/02/08 08:56:52;;;;;;;51.30;26.90;;;;;;;-0.60;81.41;103018.84;103101;1260;98683;-74
2023/02/08 08:59:22;;;;;;;51.00;26.60;;;;;;;-0.60;81.65;103024.15;102891;1255;108842;-73
2023/02/08 09:02:04;;;;;;;51.60;28.60;;;;;;;-0.60;81.52;103024.66;102906;1259;97879;-77
2023/02/08 09:04:40;;;;;;;51.50;27.10;;;;;;;-0.59;81.82;103020.59;102212;1255;1002899;-73
2023/02/08 09:07:11;;;;;;;54.20;28.00;;;;;;;-0.56;81.69;103017.83;102223;1260;1003019;-73
2023/02/08 09:09:48;;;;;;;48.50;26.90;;;;;;;-0.55;81.63;103022.05;102965;1257;138855;-75
2023/02/08 09:12:25;;;;;;;51.20;27.40;;;;;;;-0.52;81.82;103021.17;102986;1260;107871;-74
2023/02/08 09:14:56;;;;;;;56.00;28.40;;;;;;;-0.50;81.75;103019.06;103007;1255;97814;-74
2023/02/08 09:17:36;;;;;;;47.60;26.00;;;;;;;-0.47;81.77;103013.42;102272;1256;1003273;-80
2023/02/08 09:20:15;;;;;;;52.20;26.80;;;;;;;-0.44;81.65;103014.45;102934;1260;107009;-76
2023/02/08 09:22:45;;;;;;;51.10;26.90;;;;;;;-0.41;81.63;103018.09;102990;1259;139020;-76
2023/02/08 09:25:32;;;;;;;53.70;27.30;;;;;;;-0.33;81.68;103013.57;102713;1262;107348;-76
2023/02/08 09:28:19;;;;;;;48.40;26.90;;;;;;;-0.26;81.60;103018.55;102517;1261;138940;-79
2023/02/08 09:30:47;;;;;;;49.50;26.90;;;;;;;-0.22;81.50;103021.52;102749;1264;110460;-78
2023/02/08 09:33:14;;;;;;;51.00;27.50;;;;;;;-0.19;81.32;103023.27;101824;1263;1003635;-82
2023/02/08 09:35:54;;;;;;;48.10;25.50;;;;;;;-0.14;81.30;103019.23;102663;1262;97947;-83
2023/02/08 09:38:35;;;;;;;48.60;25.50;;;;;;;-0.08;81.13;103019.74;102707;1261;108328;-73
2023/02/08 09:41:35;;;;;;;48.30;25.10;;;;;;;-0.05;81.04;103023.88;102720;1261;97808;-81
2023/02/08 09:44:15;;;;;;;46.90;25.50;;;;;;;0.00;80.80;103024.30;102679;1264;111488;-77
2023/02/08 09:46:57;;;;;;;45.20;26.10;;;;;;;0.02;80.70;103030.58;102572;1262;138511;-79
2023/02/08 09:49:29;;;;;;;44.90;25.20;;;;;;;0.06;80.68;103024.31;102647;1261;97789;-78
2023/02/08 09:52:01;;;;;;;48.90;26.90;;;;;;;0.11;80.44;103020.62;102614;1264;138571;-76
2023/02/08 09:54:45;;;;;;;47.80;25.70;;;;;;;0.15;80.38;103017.56;102690;1260;97811;-74
2023/02/08 09:57:28;;;;;;;44.40;25.30;;;;;;;0.15;80.02;103024.45;102784;1256;139119;-77
2023/02/08 10:00:00;;;;;;;48.70;26.10;;;;;;;0.16;80.02;103020.41;103023;1260;108005;-79
2023/02/08 10:02:33;;;;;;;47.30;25.20;;;;;;;0.20;80.02;103020.80;103094;1255;97786;-80
2023/02/08 10:05:20;;;;;;;51.60;27.20;;;;;;;0.26;79.90;103023.69;102806;1255;138119;-78
2023/02/08 10:07:52;;;;;;;54.20;26.90;;;;;;;0.28;79.66;103026.55;103044;1256;97784;-77
2023/02/08 10:10:39;;;;;;;46.80;26.10;;;;;;;0.31;79.72;103028.75;103550;1256;138402;-79
2023/02/08 10:13:29;;;;;;;49.10;26.10;;;;;;;0.35;79.46;103027.92;102987;1255;106793;-77
2023/02/08 10:16:33;;;;;;;48.90;25.30;;;;;;;0.37;78.98;103024.42;101488;1260;1003258;-77
2023/02/08 10:19:07;;;;;;;44.60;23.90;;;;;;;0.36;78.33;103027.50;103000;1255;108100;-76
2023/02/08 10:21:59;;;;;;;42.80;23.20;;;;;;;0.32;77.70;103027.44;102720;1255;138626;-77
2023/02/08 10:25:27;;;;;;;44.10;24.20;;;;;;;0.25;77.36;103027.23;102979;1255;110975;-75
2023/02/08 10:28:14;;;;;;;43.10;24.70;;;;;;;0.20;77.62;103026.80;102483;1261;138815;-79
2023/02/08 10:30:52;;;;;;;47.50;24.60;;;;;;;0.19;78.02;103021.92;102696;1261;97914;-85
2023/02/08 10:33:48;;;;;;;45.80;25.00;;;;;;;0.18;77.78;103028.05;102660;1266;137666;-80
2023/02/08 10:36:20;;;;;;;45.60;25.50;;;;;;;0.17;77.56;103027.59;102830;1261;97935;-81
2023/02/08 10:38:50;;;;;;;42.80;24.00;;;;;;;0.15;77.49;103029.36;102669;1267;111513;-81
2023/02/08 10:41:33;;;;;;;46.90;26.40;;;;;;;0.11;77.32;103023.86;102500;1266;106029;-81
2023/02/08 10:44:14;;;;;;;40.60;22.60;;;;;;;0.14;77.59;103026.06;102597;1261;97816;-75
2023/02/08 10:47:13;;;;;;;43.30;22.70;;;;;;;0.14;77.22;103027.27;102432;1261;138553;-73
2023/02/08 10:49:50;;;;;;;41.00;22.40;;;;;;;0.14;77.16;103014.94;102444;1266;98284;-73
2023/02/08 10:52:17;;;;;;;41.80;22.00;;;;;;;0.16;77.25;103009.77;102579;1264;138520;-81
2023/02/08 10:54:57;;;;;;;39.10;21.20;;;;;;;0.21;77.41;103010.55;102597;1264;109086;-75
2023/02/08 10:57:48;;;;;;;42.90;22.70;;;;;;;0.25;77.43;103004.30;102613;1262;138745;-76
2023/02/08 11:00:25;;;;;;;38.00;22.70;;;;;;;0.28;77.11;103008.20;101965;1259;1002936;-75
2023/02/08 11:02:55;;;;;;;36.40;20.90;;;;;;;0.29;76.87;103005.52;102679;1260;98082;-72
2023/02/08 11:05:33;;;;;;;40.40;19.20;;;;;;;0.27;75.90;103006.98;102943;1259;138298;-75
2023/02/08 11:08:16;;;;;;;33.80;18.00;;;;;;;0.23;75.78;102997.00;102921;1256;107701;-76
2023/02/08 11:10:55;;;;;;;36.10;18.70;;;;;;;0.19;75.50;103002.08;102855;1255;138809;-78
2023/02/08 11:13:44;;;;;;;37.10;19.90;;;;;;;0.17;75.70;103001.27;102341;1256;1002599;-77
2023/02/08 11:16:25;;;;;;;39.80;21.80;;;;;;;0.16;75.74;103000.89;103066;1256;138691;-77
2023/02/08 11:19:06;;;;;;;42.60;22.60;;;;;;;0.16;75.98;103000.88;103095;1259;110565;-78
2023/02/08 11:21:55;;;;;;;46.60;23.00;;;;;;;0.17;75.88;102999.58;103253;1256;138476;-76
2023/02/08 11:24:34;;;;;;;39.80;22.00;;;;;;;0.18;76.17;103002.52;102418;1259;1002951;-75
2023/02/08 11:27:32;;;;;;;37.20;21.90;;;;;;;0.20;76.43;103001.98;103013;1256;138767;-75
2023/02/08 11:30:23;;;;;;;43.80;22.70;;;;;;;0.26;76.74;102998.52;103067;1255;97808;-79